WOLF14 KCLE-KSYR
Flight info
| Callsign | WOLF14 |
|---|---|
| Flight time | 0h 54m |
| Altitude | 41000 |
| Route | PFLYD1 DUUKR DKK |
| Aircraft | B738/M-SDE2E3FGHIRWXY/LB1 |
Departure
| Time | 2026-04-24 01:32 |
|---|---|
| Airport | Cleveland Hopkins International Airport (KCLE) |
Arrival
| Time | 2026-04-24 02:26 |
|---|---|
| Airport | Syracuse Hancock International Airport (KSYR) |
| Time | Latitude | Longitude | Altitude | Speed | Heading |
|---|---|---|---|---|---|
| 2026-04-24 01:09 | 41.41538 | -81.85611 | 781 ft | 0 kts | 343° |
| 2026-04-24 01:16 | 41.41540 | -81.85611 | 781 ft | 1 kts | 343° |
| 2026-04-24 01:17 | 41.41547 | -81.85614 | 780 ft | 2 kts | 343° |
| 2026-04-24 01:17 | 41.41559 | -81.85619 | 779 ft | 2 kts | 343° |
| 2026-04-24 01:17 | 41.41566 | -81.85621 | 779 ft | 0 kts | 343° |
| 2026-04-24 01:23 | 41.41567 | -81.85622 | 779 ft | 1 kts | 340° |
| 2026-04-24 01:23 | 41.41564 | -81.85633 | 779 ft | 1 kts | 234° |
| 2026-04-24 01:24 | 41.41555 | -81.85638 | 780 ft | 2 kts | 206° |
| 2026-04-24 01:24 | 41.41533 | -81.85640 | 781 ft | 4 kts | 168° |
| 2026-04-24 01:24 | 41.41508 | -81.85614 | 783 ft | 5 kts | 134° |
| 2026-04-24 01:24 | 41.41504 | -81.85608 | 784 ft | 0 kts | 134° |
| 2026-04-24 01:26 | 41.41503 | -81.85607 | 784 ft | 0 kts | 134° |
| 2026-04-24 01:26 | 41.41492 | -81.85594 | 785 ft | 4 kts | 141° |
| 2026-04-24 01:26 | 41.41469 | -81.85566 | 788 ft | 5 kts | 131° |
| 2026-04-24 01:26 | 41.41451 | -81.85529 | 791 ft | 5 kts | 124° |
| 2026-04-24 01:27 | 41.41422 | -81.85483 | 795 ft | 8 kts | 137° |
| 2026-04-24 01:27 | 41.41386 | -81.85432 | 797 ft | 8 kts | 117° |
| 2026-04-24 01:27 | 41.41390 | -81.85357 | 797 ft | 7 kts | 84° |
| 2026-04-24 01:27 | 41.41390 | -81.85345 | 797 ft | 0 kts | 96° |
| 2026-04-24 01:28 | 41.41385 | -81.85323 | 797 ft | 7 kts | 115° |
| 2026-04-24 01:28 | 41.41321 | -81.85245 | 796 ft | 17 kts | 140° |
| 2026-04-24 01:28 | 41.41247 | -81.85162 | 795 ft | 9 kts | 134° |
| 2026-04-24 01:28 | 41.41268 | -81.85095 | 795 ft | 9 kts | 47° |
| 2026-04-24 01:29 | 41.41319 | -81.85020 | 796 ft | 14 kts | 48° |
| 2026-04-24 01:29 | 41.41384 | -81.84918 | 797 ft | 14 kts | 49° |
| 2026-04-24 01:29 | 41.41447 | -81.84820 | 794 ft | 14 kts | 51° |
| 2026-04-24 01:29 | 41.41453 | -81.84719 | 792 ft | 11 kts | 130° |
| 2026-04-24 01:30 | 41.41401 | -81.84658 | 792 ft | 4 kts | 136° |
| 2026-04-24 01:30 | 41.41399 | -81.84655 | 792 ft | 0 kts | 135° |
| 2026-04-24 01:31 | 41.41398 | -81.84654 | 792 ft | 1 kts | 134° |
| 2026-04-24 01:31 | 41.41377 | -81.84618 | 793 ft | 9 kts | 122° |
| 2026-04-24 01:31 | 41.41342 | -81.84543 | 794 ft | 10 kts | 165° |
| 2026-04-24 01:31 | 41.41283 | -81.84607 | 795 ft | 15 kts | 230° |
| 2026-04-24 01:32 | 41.41057 | -81.84962 | 793 ft | 90 kts | 230° |
| 2026-04-24 01:32 | 41.40492 | -81.85852 | 784 ft | 159 kts | 229° |
| 2026-04-24 01:32 | 41.39727 | -81.87085 | 1258 ft | 182 kts | 229° |
| 2026-04-24 01:32 | 41.38942 | -81.88398 | 2292 ft | 179 kts | 231° |
| 2026-04-24 01:33 | 41.38414 | -81.89829 | 3202 ft | 183 kts | 263° |
| 2026-04-24 01:33 | 41.38687 | -81.91599 | 3505 ft | 210 kts | 286° |
| 2026-04-24 01:33 | 41.39104 | -81.93566 | 3739 ft | 231 kts | 281° |
| 2026-04-24 01:33 | 41.39459 | -81.95690 | 4247 ft | 237 kts | 279° |
| 2026-04-24 01:34 | 41.39784 | -81.97867 | 4780 ft | 247 kts | 279° |
| 2026-04-24 01:34 | 41.40113 | -82.00189 | 5245 ft | 261 kts | 279° |
| 2026-04-24 01:34 | 41.40434 | -82.02573 | 5838 ft | 263 kts | 278° |
| 2026-04-24 01:34 | 41.40745 | -82.04971 | 5992 ft | 263 kts | 278° |
| 2026-04-24 01:35 | 41.41052 | -82.07376 | 6015 ft | 263 kts | 278° |
| 2026-04-24 01:35 | 41.41388 | -82.09751 | 6295 ft | 257 kts | 286° |
| 2026-04-24 01:35 | 41.42295 | -82.11831 | 6923 ft | 268 kts | 313° |
| 2026-04-24 01:35 | 41.43858 | -82.13253 | 7550 ft | 280 kts | 336° |
| 2026-04-24 01:36 | 41.45784 | -82.13706 | 8161 ft | 286 kts | 2° |
| 2026-04-24 01:36 | 41.47699 | -82.12953 | 8793 ft | 291 kts | 28° |
| 2026-04-24 01:36 | 41.49283 | -82.11275 | 9446 ft | 292 kts | 43° |
| 2026-04-24 01:36 | 41.50708 | -82.09329 | 10084 ft | 294 kts | 45° |
| 2026-04-24 01:37 | 41.52114 | -82.07346 | 10671 ft | 295 kts | 46° |
| 2026-04-24 01:37 | 41.53528 | -82.05358 | 11277 ft | 296 kts | 45° |
| 2026-04-24 01:37 | 41.54962 | -82.03363 | 11898 ft | 300 kts | 45° |
| 2026-04-24 01:37 | 41.56425 | -82.01346 | 12542 ft | 304 kts | 45° |
| 2026-04-24 01:38 | 41.57913 | -81.99307 | 13192 ft | 309 kts | 45° |
| 2026-04-24 01:38 | 41.59421 | -81.97246 | 13842 ft | 313 kts | 45° |
| 2026-04-24 01:38 | 41.60949 | -81.95154 | 14432 ft | 316 kts | 46° |
| 2026-04-24 01:38 | 41.62169 | -81.92703 | 14992 ft | 321 kts | 70° |
| 2026-04-24 01:39 | 41.62605 | -81.89778 | 15634 ft | 323 kts | 85° |
| 2026-04-24 01:39 | 41.62761 | -81.86771 | 16245 ft | 325 kts | 86° |
| 2026-04-24 01:39 | 41.62900 | -81.83744 | 16829 ft | 330 kts | 86° |
| 2026-04-24 01:39 | 41.63061 | -81.80585 | 16969 ft | 350 kts | 85° |
| 2026-04-24 01:40 | 41.63244 | -81.77256 | 17117 ft | 368 kts | 85° |
| 2026-04-24 01:40 | 41.63441 | -81.73761 | 17254 ft | 386 kts | 85° |
| 2026-04-24 01:40 | 41.63647 | -81.70121 | 17503 ft | 399 kts | 85° |
| 2026-04-24 01:40 | 41.63857 | -81.66398 | 17974 ft | 404 kts | 85° |
| 2026-04-24 01:41 | 41.64068 | -81.62631 | 18479 ft | 408 kts | 85° |
| 2026-04-24 01:41 | 41.64279 | -81.58825 | 18974 ft | 412 kts | 85° |
| 2026-04-24 01:41 | 41.64496 | -81.54998 | 19497 ft | 414 kts | 83° |
| 2026-04-24 01:41 | 41.65171 | -81.51263 | 19938 ft | 416 kts | 63° |
| 2026-04-24 01:42 | 41.66570 | -81.47881 | 20466 ft | 416 kts | 58° |
| 2026-04-24 01:42 | 41.68046 | -81.44539 | 20953 ft | 419 kts | 57° |
| 2026-04-24 01:42 | 41.69539 | -81.41169 | 21405 ft | 423 kts | 57° |
| 2026-04-24 01:42 | 41.71037 | -81.37763 | 21865 ft | 426 kts | 57° |
| 2026-04-24 01:43 | 41.72516 | -81.34369 | 22328 ft | 429 kts | 57° |
| 2026-04-24 01:43 | 41.74038 | -81.30850 | 22789 ft | 432 kts | 57° |
| 2026-04-24 01:43 | 41.75522 | -81.27399 | 23242 ft | 435 kts | 57° |
| 2026-04-24 01:43 | 41.77033 | -81.23873 | 23657 ft | 438 kts | 57° |
| 2026-04-24 01:44 | 41.78552 | -81.20320 | 24031 ft | 440 kts | 57° |
| 2026-04-24 01:44 | 41.80077 | -81.16749 | 24416 ft | 443 kts | 57° |
| 2026-04-24 01:44 | 41.81609 | -81.13158 | 24788 ft | 445 kts | 57° |
| 2026-04-24 01:44 | 41.83147 | -81.09548 | 25147 ft | 447 kts | 57° |
| 2026-04-24 01:45 | 41.84693 | -81.05915 | 25502 ft | 450 kts | 57° |
| 2026-04-24 01:45 | 41.86248 | -81.02259 | 25870 ft | 452 kts | 57° |
| 2026-04-24 01:45 | 41.87807 | -80.98586 | 26222 ft | 454 kts | 57° |
| 2026-04-24 01:45 | 41.89371 | -80.94899 | 26552 ft | 456 kts | 57° |
| 2026-04-24 01:46 | 41.90433 | -80.92392 | 26774 ft | 458 kts | 57° |
| 2026-04-24 01:46 | 41.92010 | -80.88664 | 27098 ft | 460 kts | 56° |
| 2026-04-24 01:46 | 41.93574 | -80.84964 | 27425 ft | 462 kts | 56° |
| 2026-04-24 01:46 | 41.95184 | -80.81149 | 27738 ft | 465 kts | 56° |
| 2026-04-24 01:47 | 41.96781 | -80.77362 | 28043 ft | 467 kts | 56° |
| 2026-04-24 01:47 | 41.98383 | -80.73559 | 28336 ft | 469 kts | 56° |
| 2026-04-24 01:47 | 41.99965 | -80.69777 | 28626 ft | 472 kts | 58° |
| 2026-04-24 01:47 | 42.01472 | -80.65836 | 28912 ft | 475 kts | 60° |
| 2026-04-24 01:48 | 42.02898 | -80.61812 | 29210 ft | 478 kts | 61° |
| 2026-04-24 01:48 | 42.04296 | -80.57739 | 29470 ft | 481 kts | 62° |
| 2026-04-24 01:48 | 42.05711 | -80.53589 | 29749 ft | 483 kts | 61° |
| 2026-04-24 01:48 | 42.07120 | -80.49479 | 29983 ft | 485 kts | 61° |
| 2026-04-24 01:49 | 42.08548 | -80.45350 | 30227 ft | 486 kts | 60° |
| 2026-04-24 01:49 | 42.09980 | -80.41233 | 30555 ft | 485 kts | 60° |
| 2026-04-24 01:49 | 42.11411 | -80.37132 | 30930 ft | 483 kts | 60° |
| 2026-04-24 01:49 | 42.12820 | -80.33101 | 31240 ft | 482 kts | 60° |
| 2026-04-24 01:50 | 42.14249 | -80.29011 | 31504 ft | 482 kts | 60° |
| 2026-04-24 01:50 | 42.15676 | -80.24920 | 31782 ft | 483 kts | 60° |
| 2026-04-24 01:50 | 42.17100 | -80.20832 | 32077 ft | 482 kts | 60° |
| 2026-04-24 01:50 | 42.18522 | -80.16741 | 32384 ft | 481 kts | 60° |
| 2026-04-24 01:51 | 42.19935 | -80.12670 | 32747 ft | 479 kts | 60° |
| 2026-04-24 01:51 | 42.21342 | -80.08606 | 33100 ft | 477 kts | 60° |
| 2026-04-24 01:51 | 42.22743 | -80.04555 | 33369 ft | 477 kts | 60° |
| 2026-04-24 01:51 | 42.24147 | -80.00494 | 33593 ft | 477 kts | 60° |
| 2026-04-24 01:52 | 42.25547 | -79.96435 | 33845 ft | 477 kts | 60° |
| 2026-04-24 01:52 | 42.26946 | -79.92375 | 34126 ft | 476 kts | 60° |
| 2026-04-24 01:52 | 42.28335 | -79.88332 | 34382 ft | 475 kts | 60° |
| 2026-04-24 01:52 | 42.29723 | -79.84289 | 34603 ft | 474 kts | 60° |
| 2026-04-24 01:53 | 42.31110 | -79.80246 | 34813 ft | 474 kts | 60° |
| 2026-04-24 01:53 | 42.32492 | -79.76209 | 35069 ft | 473 kts | 60° |
| 2026-04-24 01:53 | 42.33868 | -79.72184 | 35327 ft | 471 kts | 60° |
| 2026-04-24 01:53 | 42.35240 | -79.68164 | 35552 ft | 470 kts | 60° |
| 2026-04-24 01:54 | 42.36607 | -79.64155 | 35754 ft | 470 kts | 60° |
| 2026-04-24 01:54 | 42.37974 | -79.60141 | 35942 ft | 470 kts | 60° |
| 2026-04-24 01:54 | 42.39338 | -79.56129 | 36142 ft | 469 kts | 60° |
| 2026-04-24 01:54 | 42.40699 | -79.52117 | 36350 ft | 469 kts | 60° |
| 2026-04-24 01:55 | 42.42056 | -79.48115 | 36534 ft | 468 kts | 60° |
| 2026-04-24 01:55 | 42.44758 | -79.40126 | 36554 ft | 470 kts | 60° |
| 2026-04-24 01:56 | 42.47459 | -79.32113 | 36760 ft | 467 kts | 60° |
| 2026-04-24 01:56 | 42.48797 | -79.28111 | 36888 ft | 468 kts | 62° |
| 2026-04-24 01:56 | 42.49905 | -79.23934 | 36952 ft | 474 kts | 68° |
| 2026-04-24 01:57 | 42.51656 | -79.15254 | 36990 ft | 481 kts | 70° |
| 2026-04-24 01:57 | 42.53349 | -79.06426 | 36990 ft | 487 kts | 70° |
| 2026-04-24 01:58 | 42.55096 | -78.97529 | 36988 ft | 490 kts | 70° |
| 2026-04-24 01:58 | 42.56878 | -78.88602 | 36983 ft | 491 kts | 70° |
| 2026-04-24 01:59 | 42.58666 | -78.79658 | 36984 ft | 491 kts | 70° |
| 2026-04-24 01:59 | 42.60449 | -78.70703 | 36978 ft | 491 kts | 70° |
| 2026-04-24 02:00 | 42.62221 | -78.61754 | 36998 ft | 491 kts | 70° |
| 2026-04-24 02:00 | 42.63983 | -78.52811 | 36992 ft | 489 kts | 70° |
| 2026-04-24 02:01 | 42.65731 | -78.43894 | 36995 ft | 488 kts | 70° |
| 2026-04-24 02:01 | 42.67469 | -78.34992 | 36994 ft | 487 kts | 70° |
| 2026-04-24 02:02 | 42.69197 | -78.26102 | 37000 ft | 486 kts | 70° |
| 2026-04-24 02:02 | 42.70918 | -78.17214 | 36996 ft | 486 kts | 70° |
| 2026-04-24 02:03 | 42.73468 | -78.03959 | 37002 ft | 485 kts | 70° |
| 2026-04-24 02:03 | 42.75160 | -77.95107 | 37014 ft | 478 kts | 70° |
| 2026-04-24 02:04 | 42.75980 | -77.90779 | 36824 ft | 468 kts | 70° |
| 2026-04-24 02:04 | 42.76787 | -77.86521 | 36464 ft | 462 kts | 69° |
| 2026-04-24 02:04 | 42.77589 | -77.82293 | 35978 ft | 461 kts | 69° |
| 2026-04-24 02:04 | 42.78389 | -77.78080 | 35534 ft | 459 kts | 69° |
| 2026-04-24 02:05 | 42.79184 | -77.73882 | 35140 ft | 456 kts | 69° |
| 2026-04-24 02:05 | 42.79970 | -77.69720 | 34779 ft | 452 kts | 69° |
| 2026-04-24 02:05 | 42.80748 | -77.65582 | 34421 ft | 449 kts | 69° |
| 2026-04-24 02:05 | 42.81518 | -77.61480 | 34050 ft | 446 kts | 69° |
| 2026-04-24 02:06 | 42.82282 | -77.57404 | 33649 ft | 443 kts | 69° |
| 2026-04-24 02:06 | 42.83039 | -77.53354 | 33253 ft | 439 kts | 69° |
| 2026-04-24 02:06 | 42.83789 | -77.49334 | 32820 ft | 437 kts | 69° |
| 2026-04-24 02:06 | 42.84535 | -77.45332 | 32383 ft | 435 kts | 69° |
| 2026-04-24 02:07 | 42.85277 | -77.41340 | 31969 ft | 433 kts | 69° |
| 2026-04-24 02:07 | 42.86015 | -77.37363 | 31556 ft | 432 kts | 69° |
| 2026-04-24 02:07 | 42.86746 | -77.33409 | 31167 ft | 429 kts | 69° |
| 2026-04-24 02:07 | 42.87477 | -77.29458 | 30524 ft | 433 kts | 69° |
| 2026-04-24 02:08 | 42.88219 | -77.25453 | 29586 ft | 438 kts | 69° |
| 2026-04-24 02:08 | 42.88963 | -77.21416 | 28674 ft | 440 kts | 69° |
| 2026-04-24 02:08 | 42.89707 | -77.17361 | 27764 ft | 442 kts | 69° |
| 2026-04-24 02:08 | 42.90454 | -77.13283 | 26893 ft | 443 kts | 69° |
| 2026-04-24 02:09 | 42.91198 | -77.09205 | 26026 ft | 444 kts | 69° |
| 2026-04-24 02:09 | 42.91941 | -77.05120 | 25181 ft | 444 kts | 69° |
| 2026-04-24 02:09 | 42.92682 | -77.01038 | 24359 ft | 443 kts | 69° |
| 2026-04-24 02:09 | 42.93420 | -76.96960 | 23555 ft | 442 kts | 69° |
| 2026-04-24 02:10 | 42.94155 | -76.92899 | 22614 ft | 440 kts | 69° |
| 2026-04-24 02:10 | 42.94885 | -76.88851 | 21704 ft | 438 kts | 69° |
| 2026-04-24 02:10 | 42.95611 | -76.84814 | 20830 ft | 436 kts | 69° |
| 2026-04-24 02:10 | 42.96331 | -76.80807 | 19971 ft | 434 kts | 69° |
| 2026-04-24 02:11 | 42.97157 | -76.76866 | 19000 ft | 426 kts | 59° |
| 2026-04-24 02:11 | 42.98647 | -76.73496 | 18035 ft | 406 kts | 40° |
| 2026-04-24 02:11 | 43.00730 | -76.71063 | 17008 ft | 387 kts | 24° |
| 2026-04-24 02:11 | 43.02901 | -76.68872 | 15980 ft | 396 kts | 37° |
| 2026-04-24 02:12 | 43.04536 | -76.65766 | 15005 ft | 412 kts | 56° |
| 2026-04-24 02:12 | 43.05406 | -76.61967 | 14073 ft | 427 kts | 75° |
| 2026-04-24 02:12 | 43.05392 | -76.57868 | 13049 ft | 439 kts | 94° |
| 2026-04-24 02:12 | 43.04572 | -76.53828 | 12055 ft | 440 kts | 102° |
| 2026-04-24 02:13 | 43.04099 | -76.49831 | 11670 ft | 412 kts | 85° |
| 2026-04-24 02:13 | 43.04195 | -76.46028 | 11322 ft | 391 kts | 79° |
| 2026-04-24 02:13 | 43.04270 | -76.42365 | 10943 ft | 384 kts | 91° |
| 2026-04-24 02:13 | 43.03557 | -76.38885 | 10664 ft | 379 kts | 115° |
| 2026-04-24 02:14 | 43.02034 | -76.36046 | 10541 ft | 363 kts | 139° |
| 2026-04-24 02:14 | 42.99987 | -76.34228 | 10381 ft | 342 kts | 164° |
| 2026-04-24 02:14 | 42.97758 | -76.33626 | 10225 ft | 316 kts | 190° |
| 2026-04-24 02:14 | 42.95716 | -76.34235 | 10084 ft | 289 kts | 217° |
| 2026-04-24 02:15 | 42.94212 | -76.35864 | 10041 ft | 270 kts | 244° |
| 2026-04-24 02:15 | 42.93484 | -76.38118 | 10015 ft | 254 kts | 270° |
| 2026-04-24 02:15 | 42.93657 | -76.40421 | 9998 ft | 240 kts | 296° |
| 2026-04-24 02:15 | 42.94613 | -76.42238 | 10014 ft | 237 kts | 315° |
| 2026-04-24 02:16 | 42.95841 | -76.43757 | 10004 ft | 239 kts | 317° |
| 2026-04-24 02:16 | 42.97114 | -76.45245 | 9640 ft | 246 kts | 318° |
| 2026-04-24 02:16 | 42.98429 | -76.46758 | 9108 ft | 247 kts | 318° |
| 2026-04-24 02:16 | 42.99744 | -76.48274 | 8548 ft | 248 kts | 318° |
| 2026-04-24 02:17 | 43.01057 | -76.49801 | 8020 ft | 248 kts | 318° |
| 2026-04-24 02:17 | 43.02372 | -76.51339 | 7474 ft | 249 kts | 318° |
| 2026-04-24 02:17 | 43.03693 | -76.52887 | 6816 ft | 254 kts | 319° |
| 2026-04-24 02:17 | 43.05050 | -76.54503 | 6355 ft | 255 kts | 318° |
| 2026-04-24 02:18 | 43.06353 | -76.56065 | 6189 ft | 244 kts | 318° |
| 2026-04-24 02:18 | 43.07614 | -76.57583 | 5845 ft | 243 kts | 318° |
| 2026-04-24 02:18 | 43.08886 | -76.59122 | 5332 ft | 245 kts | 318° |
| 2026-04-24 02:18 | 43.10244 | -76.60538 | 4813 ft | 248 kts | 335° |
| 2026-04-24 02:19 | 43.11929 | -76.60969 | 4301 ft | 252 kts | 4° |
| 2026-04-24 02:19 | 43.13565 | -76.60165 | 3847 ft | 253 kts | 33° |
| 2026-04-24 02:19 | 43.14700 | -76.58348 | 3351 ft | 255 kts | 63° |
| 2026-04-24 02:19 | 43.14983 | -76.56019 | 3157 ft | 249 kts | 94° |
| 2026-04-24 02:20 | 43.14516 | -76.53725 | 3109 ft | 251 kts | 107° |
| 2026-04-24 02:20 | 43.13924 | -76.51549 | 3086 ft | 241 kts | 108° |
| 2026-04-24 02:20 | 43.13340 | -76.49475 | 3068 ft | 221 kts | 108° |
| 2026-04-24 02:20 | 43.12801 | -76.47584 | 3095 ft | 210 kts | 108° |
| 2026-04-24 02:21 | 43.12273 | -76.45733 | 3096 ft | 208 kts | 108° |
| 2026-04-24 02:21 | 43.11748 | -76.43886 | 3095 ft | 208 kts | 108° |
| 2026-04-24 02:21 | 43.11230 | -76.42069 | 3105 ft | 207 kts | 108° |
| 2026-04-24 02:21 | 43.10715 | -76.40272 | 3081 ft | 198 kts | 108° |
| 2026-04-24 02:22 | 43.10218 | -76.38541 | 3048 ft | 192 kts | 107° |
| 2026-04-24 02:22 | 43.09901 | -76.36798 | 2886 ft | 191 kts | 90° |
| 2026-04-24 02:22 | 43.09852 | -76.35010 | 2724 ft | 185 kts | 86° |
| 2026-04-24 02:22 | 43.09848 | -76.33272 | 2593 ft | 182 kts | 85° |
| 2026-04-24 02:23 | 43.09871 | -76.31542 | 2471 ft | 181 kts | 84° |
| 2026-04-24 02:23 | 43.09940 | -76.29839 | 2390 ft | 178 kts | 79° |
| 2026-04-24 02:23 | 43.10076 | -76.28127 | 2302 ft | 185 kts | 79° |
| 2026-04-24 02:23 | 43.10199 | -76.26374 | 2132 ft | 184 kts | 80° |
| 2026-04-24 02:24 | 43.10312 | -76.24693 | 1912 ft | 173 kts | 81° |
| 2026-04-24 02:24 | 43.10415 | -76.23131 | 1730 ft | 157 kts | 81° |
| 2026-04-24 02:24 | 43.10486 | -76.21663 | 1525 ft | 155 kts | 83° |
| 2026-04-24 02:24 | 43.10555 | -76.20193 | 1375 ft | 156 kts | 83° |
| 2026-04-24 02:25 | 43.10608 | -76.18707 | 1205 ft | 156 kts | 85° |
| 2026-04-24 02:25 | 43.10659 | -76.17241 | 1032 ft | 153 kts | 85° |
| 2026-04-24 02:25 | 43.10706 | -76.15793 | 839 ft | 151 kts | 86° |
| 2026-04-24 02:25 | 43.10765 | -76.14383 | 671 ft | 146 kts | 86° |
| 2026-04-24 02:26 | 43.10807 | -76.13012 | 488 ft | 142 kts | 85° |
| 2026-04-24 02:26 | 43.10851 | -76.11716 | 424 ft | 126 kts | 88° |
| 2026-04-24 02:26 | 43.10882 | -76.10723 | 423 ft | 83 kts | 88° |
| 2026-04-24 02:26 | 43.10903 | -76.10134 | 420 ft | 41 kts | 87° |
| 2026-04-24 02:27 | 43.10912 | -76.09890 | 423 ft | 12 kts | 79° |
| 2026-04-24 02:27 | 43.10973 | -76.09894 | 415 ft | 11 kts | 315° |
| 2026-04-24 02:27 | 43.11008 | -76.09946 | 417 ft | 0 kts | 314° |
| 2026-04-24 02:28 | 43.11020 | -76.09969 | 416 ft | 8 kts | 298° |
| 2026-04-24 02:28 | 43.11030 | -76.10089 | 415 ft | 18 kts | 265° |
| 2026-04-24 02:28 | 43.11020 | -76.10300 | 419 ft | 27 kts | 266° |
| 2026-04-24 02:28 | 43.11011 | -76.10587 | 420 ft | 32 kts | 267° |
| 2026-04-24 02:29 | 43.11000 | -76.10885 | 424 ft | 30 kts | 267° |
| 2026-04-24 02:29 | 43.10992 | -76.11165 | 424 ft | 29 kts | 267° |
| 2026-04-24 02:29 | 43.10984 | -76.11428 | 421 ft | 27 kts | 266° |
| 2026-04-24 02:29 | 43.10975 | -76.11676 | 423 ft | 25 kts | 268° |
| 2026-04-24 02:30 | 43.10968 | -76.11908 | 423 ft | 24 kts | 267° |
| 2026-04-24 02:30 | 43.10958 | -76.12126 | 413 ft | 23 kts | 269° |
| 2026-04-24 02:30 | 43.10952 | -76.12357 | 423 ft | 29 kts | 268° |
| 2026-04-24 02:30 | 43.10943 | -76.12636 | 414 ft | 29 kts | 267° |
| 2026-04-24 02:31 | 43.10935 | -76.12893 | 423 ft | 20 kts | 269° |
| 2026-04-24 02:31 | 43.11008 | -76.13017 | 423 ft | 17 kts | 319° |
| 2026-04-24 02:31 | 43.11073 | -76.13090 | 423 ft | 6 kts | 330° |
| 2026-04-24 02:31 | 43.11080 | -76.13095 | 423 ft | 0 kts | 339° |
| 2026-04-24 02:32 | 43.11083 | -76.13096 | 423 ft | 2 kts | 339° |
| 2026-04-24 02:32 | 43.11096 | -76.13102 | 413 ft | 2 kts | 347° |
| 2026-04-24 02:32 | 43.11109 | -76.13082 | 419 ft | 4 kts | 71° |
| 2026-04-24 02:32 | 43.11126 | -76.13017 | 423 ft | 11 kts | 62° |
| 2026-04-24 02:33 | 43.11177 | -76.13020 | 419 ft | 11 kts | 271° |
| 2026-04-24 02:33 | 43.11162 | -76.13054 | 416 ft | 0 kts | 217° |